Impacts METAR Board
IDs:

KLEE - Leesburg Muni, FL, US

Updated at: 2200 UTC 30 Jun 2022
Potential Impact None Slight Moderate High
Time 30/10Z 30/11Z 30/12Z 30/13Z 30/14Z 30/15Z 30/16Z 30/17Z 30/18Z 30/19Z 30/20Z 30/21Z 30/22Z
Temp75 75 79 82 84 85 88 91 92 92 85 84 81
Dewpt74 74 76 75 74 73 71 73 72 73 74 70 73
Altim30.13 30.14 30.14 30.16 30.16 30.16 30.15 30.13 30.11 30.08 30.09 30.08 30.08
VIS10 10 10 10 10 10 10 10 10
CIG-- -- -- -- -- -- -- -- -- -- -- -- --
CoverCLRCLRCLRCLR------------------
FltCatVFRVFRVFRVFRVFRVFRVFRVFRVFR
WX--------------------------
WDir30020330310032036000407070
WSpd4 0 3 3 4 3 6 5 0 6 15 9 7
WGst-- -- -- -- -- -- -- -- -- -- 22 -- 18
Raw hourly METARs
KLEE 300953Z AUTO 03004KT 10SM CLR 24/23 A3013 RMK AO2 SLP202 T02390233
KLEE 301053Z 00000KT 10SM CLR 24/23 A3014 RMK AO2 SLP203 T02390233
KLEE 301153Z 02003KT 10SM CLR 26/24 A3014 RMK AO2 SLP206 T02610244 10261 20233 53005
KLEE 301253Z 33003KT 10SM CLR 28/24 A3016 RMK AO2 SLP210 T02780239
KLEE 301353Z 31004KT 10SM 29/23 A3016 RMK AO2 SLP211 T02890233 $
KLEE 301453Z VRB03KT 10SM 29/23 A3016 RMK AO2 SLP211 T02940228 51004
KLEE 301553Z 32006KT 10SM 31/22 A3015 RMK AO2 SLP207 T03110217
KLEE 301653Z 36005KT 10SM 33/23 A3013 RMK AO2 SLP201 T03280228
KLEE 301753Z 00000KT 33/22 A3011 RMK AO2 SLP195 T03330222 10339 20261 58016 $
KLEE 301853Z VRB06KT 33/23 A3008 RMK AO2 LTG DSNT N AND E SLP184 T03330228 $
KLEE 301953Z 04015G22KT 29/23 A3009 RMK AO2 PK WND 05027/1941 WSHFT 1930 LTG DSNT N-SE SLP187 T02940233 $
KLEE 302053Z 07009KT 29/21 A3008 RMK AO2 SLP183 T02890211 58001 $
KLEE 302153Z 07007G18KT 10SM 27/23 A3008 RMK AO2 LTG DSNT W SLP183 T02720228 $



Page loaded:  22:02 UTC  |   03:02 PM Pacific  |   04:02 PM Mountain  |   05:02 PM Central  |   06:02 PM Eastern

 

ADVISORIES

FORECASTS

FORECASTS

OBSERVATIONS

USER TOOLS

ABOUT US